sensor_id;sensor_type;location;lat;lon;timestamp;temperature;humidity
3053;DHT22;1536;51.098;6.414;2022-11-14T00:02:23;8.20;99.90
3053;DHT22;1536;51.098;6.414;2022-11-14T00:04:49;8.20;99.90
3053;DHT22;1536;51.098;6.414;2022-11-14T00:07:16;8.20;99.90
3053;DHT22;1536;51.098;6.414;2022-11-14T00:09:44;8.30;99.90
3053;DHT22;1536;51.098;6.414;2022-11-14T00:12:11;8.30;99.90
3053;DHT22;1536;51.098;6.414;2022-11-14T00:14:38;8.20;99.90
3053;DHT22;1536;51.098;6.414;2022-11-14T00:17:05;8.30;99.90
3053;DHT22;1536;51.098;6.414;2022-11-14T00:19:31;8.20;99.90
3053;DHT22;1536;51.098;6.414;2022-11-14T00:21:58;8.20;99.90
3053;DHT22;1536;51.098;6.414;2022-11-14T00:24:25;8.20;99.90
3053;DHT22;1536;51.098;6.414;2022-11-14T00:26:53;8.10;99.90
3053;DHT22;1536;51.098;6.414;2022-11-14T00:29:20;8.00;99.90
3053;DHT22;1536;51.098;6.414;2022-11-14T00:31:47;8.00;99.90
3053;DHT22;1536;51.098;6.414;2022-11-14T00:34:13;7.90;99.90
3053;DHT22;1536;51.098;6.414;2022-11-14T00:36:40;7.80;99.90
3053;DHT22;1536;51.098;6.414;2022-11-14T00:39:10;7.70;99.90
3053;DHT22;1536;51.098;6.414;2022-11-14T00:41:37;7.70;99.90
3053;DHT22;1536;51.098;6.414;2022-11-14T00:44:05;7.70;99.90
3053;DHT22;1536;51.098;6.414;2022-11-14T00:46:32;7.70;99.90
3053;DHT22;1536;51.098;6.414;2022-11-14T00:48:59;7.70;99.90
3053;DHT22;1536;51.098;6.414;2022-11-14T00:51:26;7.80;99.90
3053;DHT22;1536;51.098;6.414;2022-11-14T00:53:52;7.80;99.90
3053;DHT22;1536;51.098;6.414;2022-11-14T00:56:19;7.80;99.90
3053;DHT22;1536;51.098;6.414;2022-11-14T00:58:46;7.90;99.90
3053;DHT22;1536;51.098;6.414;2022-11-14T01:01:14;7.90;99.90
3053;DHT22;1536;51.098;6.414;2022-11-14T01:03:41;7.90;99.90
3053;DHT22;1536;51.098;6.414;2022-11-14T01:06:10;7.90;99.90
3053;DHT22;1536;51.098;6.414;2022-11-14T01:08:38;7.90;99.90
3053;DHT22;1536;51.098;6.414;2022-11-14T01:11:08;8.00;99.90
3053;DHT22;1536;51.098;6.414;2022-11-14T01:13:36;8.00;99.90
3053;DHT22;1536;51.098;6.414;2022-11-14T01:16:03;8.00;99.90
3053;DHT22;1536;51.098;6.414;2022-11-14T01:18:31;8.00;99.90
3053;DHT22;1536;51.098;6.414;2022-11-14T01:20:58;8.00;99.90
3053;DHT22;1536;51.098;6.414;2022-11-14T01:23:25;8.00;99.90
3053;DHT22;1536;51.098;6.414;2022-11-14T01:25:51;8.00;99.90
3053;DHT22;1536;51.098;6.414;2022-11-14T01:28:18;8.10;99.90
3053;DHT22;1536;51.098;6.414;2022-11-14T01:30:45;8.10;99.90
3053;DHT22;1536;51.098;6.414;2022-11-14T01:33:12;8.10;99.90
3053;DHT22;1536;51.098;6.414;2022-11-14T01:35:40;8.00;99.90
3053;DHT22;1536;51.098;6.414;2022-11-14T01:38:12;8.00;99.90
3053;DHT22;1536;51.098;6.414;2022-11-14T01:40:40;8.00;99.90
3053;DHT22;1536;51.098;6.414;2022-11-14T01:43:24;8.00;99.90
3053;DHT22;1536;51.098;6.414;2022-11-14T01:45:53;8.00;99.90
3053;DHT22;1536;51.098;6.414;2022-11-14T01:48:23;7.90;99.90
3053;DHT22;1536;51.098;6.414;2022-11-14T01:50:56;7.80;99.90
3053;DHT22;1536;51.098;6.414;2022-11-14T01:53:24;7.80;99.90
3053;DHT22;1536;51.098;6.414;2022-11-14T01:55:53;7.70;99.90
3053;DHT22;1536;51.098;6.414;2022-11-14T01:58:21;7.60;99.90
3053;DHT22;1536;51.098;6.414;2022-11-14T02:00:48;7.50;99.90
3053;DHT22;1536;51.098;6.414;2022-11-14T02:03:15;7.40;99.90
3053;DHT22;1536;51.098;6.414;2022-11-14T02:05:44;7.40;99.90
3053;DHT22;1536;51.098;6.414;2022-11-14T02:08:13;7.40;99.90
3053;DHT22;1536;51.098;6.414;2022-11-14T02:10:41;7.40;99.90
3053;DHT22;1536;51.098;6.414;2022-11-14T02:13:08;7.30;99.90
3053;DHT22;1536;51.098;6.414;2022-11-14T02:15:35;7.30;99.90
3053;DHT22;1536;51.098;6.414;2022-11-14T02:18:03;7.30;99.90
3053;DHT22;1536;51.098;6.414;2022-11-14T02:20:34;7.20;99.90
3053;DHT22;1536;51.098;6.414;2022-11-14T02:23:01;7.20;99.90
3053;DHT22;1536;51.098;6.414;2022-11-14T02:25:28;7.20;99.90
3053;DHT22;1536;51.098;6.414;2022-11-14T02:27:55;7.20;99.90
3053;DHT22;1536;51.098;6.414;2022-11-14T02:30:24;7.10;99.90
3053;DHT22;1536;51.098;6.414;2022-11-14T02:32:50;7.10;99.90
3053;DHT22;1536;51.098;6.414;2022-11-14T02:35:17;7.10;99.90
3053;DHT22;1536;51.098;6.414;2022-11-14T02:37:45;7.00;99.90
3053;DHT22;1536;51.098;6.414;2022-11-14T02:40:12;7.00;99.90
3053;DHT22;1536;51.098;6.414;2022-11-14T02:42:38;7.00;99.90
3053;DHT22;1536;51.098;6.414;2022-11-14T02:45:06;7.00;99.90
3053;DHT22;1536;51.098;6.414;2022-11-14T02:47:33;6.90;99.90
3053;DHT22;1536;51.098;6.414;2022-11-14T02:50:00;7.00;99.90
3053;DHT22;1536;51.098;6.414;2022-11-14T02:52:26;7.00;99.90
3053;DHT22;1536;51.098;6.414;2022-11-14T02:54:54;7.10;99.90
3053;DHT22;1536;51.098;6.414;2022-11-14T02:57:21;7.20;99.90
3053;DHT22;1536;51.098;6.414;2022-11-14T02:59:48;7.40;99.90
3053;DHT22;1536;51.098;6.414;2022-11-14T03:02:14;7.50;99.90
3053;DHT22;1536;51.098;6.414;2022-11-14T03:04:41;7.60;99.90
3053;DHT22;1536;51.098;6.414;2022-11-14T03:07:08;7.80;99.90
3053;DHT22;1536;51.098;6.414;2022-11-14T03:09:34;7.90;99.90
3053;DHT22;1536;51.098;6.414;2022-11-14T03:12:03;8.00;99.90
3053;DHT22;1536;51.098;6.414;2022-11-14T03:14:30;8.20;99.90
3053;DHT22;1536;51.098;6.414;2022-11-14T03:16:57;8.30;99.90
3053;DHT22;1536;51.098;6.414;2022-11-14T03:19:23;8.40;99.90
3053;DHT22;1536;51.098;6.414;2022-11-14T03:21:50;8.40;99.90
3053;DHT22;1536;51.098;6.414;2022-11-14T03:24:17;8.50;99.90
3053;DHT22;1536;51.098;6.414;2022-11-14T03:26:44;8.60;99.90
3053;DHT22;1536;51.098;6.414;2022-11-14T03:29:12;8.70;99.90
3053;DHT22;1536;51.098;6.414;2022-11-14T03:31:39;8.70;99.90
3053;DHT22;1536;51.098;6.414;2022-11-14T03:34:05;8.80;99.90
3053;DHT22;1536;51.098;6.414;2022-11-14T03:36:33;8.90;99.90
3053;DHT22;1536;51.098;6.414;2022-11-14T03:39:00;8.90;99.90
3053;DHT22;1536;51.098;6.414;2022-11-14T03:41:27;9.00;99.90
3053;DHT22;1536;51.098;6.414;2022-11-14T03:43:53;9.00;99.90
3053;DHT22;1536;51.098;6.414;2022-11-14T03:46:21;9.10;99.90
3053;DHT22;1536;51.098;6.414;2022-11-14T03:48:48;9.20;99.90
3053;DHT22;1536;51.098;6.414;2022-11-14T03:51:15;9.20;99.90
3053;DHT22;1536;51.098;6.414;2022-11-14T03:53:41;9.20;99.90
3053;DHT22;1536;51.098;6.414;2022-11-14T03:56:08;9.20;99.90
3053;DHT22;1536;51.098;6.414;2022-11-14T03:58:35;9.30;99.90
3053;DHT22;1536;51.098;6.414;2022-11-14T04:01:02;9.30;99.90
3053;DHT22;1536;51.098;6.414;2022-11-14T04:03:30;9.30;99.90
3053;DHT22;1536;51.098;6.414;2022-11-14T04:05:57;9.30;99.90
3053;DHT22;1536;51.098;6.414;2022-11-14T04:08:23;9.30;99.90
3053;DHT22;1536;51.098;6.414;2022-11-14T04:10:50;9.40;99.90
3053;DHT22;1536;51.098;6.414;2022-11-14T04:13:17;9.50;99.90
3053;DHT22;1536;51.098;6.414;2022-11-14T04:15:44;9.50;99.90
3053;DHT22;1536;51.098;6.414;2022-11-14T04:18:10;9.60;99.90
3053;DHT22;1536;51.098;6.414;2022-11-14T04:20:38;9.60;99.90
3053;DHT22;1536;51.098;6.414;2022-11-14T04:23:05;9.60;99.90
3053;DHT22;1536;51.098;6.414;2022-11-14T04:25:32;9.70;99.90
3053;DHT22;1536;51.098;6.414;2022-11-14T04:27:58;9.70;99.90
3053;DHT22;1536;51.098;6.414;2022-11-14T04:30:25;9.80;99.90
3053;DHT22;1536;51.098;6.414;2022-11-14T04:32:52;9.70;99.90
3053;DHT22;1536;51.098;6.414;2022-11-14T04:35:18;9.80;99.90
3053;DHT22;1536;51.098;6.414;2022-11-14T04:37:46;9.70;99.90
3053;DHT22;1536;51.098;6.414;2022-11-14T04:40:14;9.70;99.90
3053;DHT22;1536;51.098;6.414;2022-11-14T04:42:40;9.70;99.90
3053;DHT22;1536;51.098;6.414;2022-11-14T04:45:08;9.80;99.90
3053;DHT22;1536;51.098;6.414;2022-11-14T04:47:35;9.80;99.90
3053;DHT22;1536;51.098;6.414;2022-11-14T04:50:02;9.80;99.90
3053;DHT22;1536;51.098;6.414;2022-11-14T04:52:29;9.90;99.90
3053;DHT22;1536;51.098;6.414;2022-11-14T04:54:57;9.90;99.90
3053;DHT22;1536;51.098;6.414;2022-11-14T04:57:24;9.90;99.90
3053;DHT22;1536;51.098;6.414;2022-11-14T04:59:51;9.90;99.90
3053;DHT22;1536;51.098;6.414;2022-11-14T05:02:18;10.00;99.90
3053;DHT22;1536;51.098;6.414;2022-11-14T05:04:45;10.00;99.90
3053;DHT22;1536;51.098;6.414;2022-11-14T05:07:13;10.00;99.90
3053;DHT22;1536;51.098;6.414;2022-11-14T05:09:40;10.00;99.90
3053;DHT22;1536;51.098;6.414;2022-11-14T05:12:08;10.00;99.90
3053;DHT22;1536;51.098;6.414;2022-11-14T05:14:34;10.00;99.90
3053;DHT22;1536;51.098;6.414;2022-11-14T05:17:01;10.00;99.90
3053;DHT22;1536;51.098;6.414;2022-11-14T05:19:28;10.00;99.90
3053;DHT22;1536;51.098;6.414;2022-11-14T05:21:54;10.00;99.90
3053;DHT22;1536;51.098;6.414;2022-11-14T05:24:21;10.00;99.90
3053;DHT22;1536;51.098;6.414;2022-11-14T05:26:48;10.00;99.90
3053;DHT22;1536;51.098;6.414;2022-11-14T05:29:16;9.90;99.90
3053;DHT22;1536;51.098;6.414;2022-11-14T05:31:42;9.90;99.90
3053;DHT22;1536;51.098;6.414;2022-11-14T05:34:09;9.90;99.90
3053;DHT22;1536;51.098;6.414;2022-11-14T05:36:36;9.90;99.90
3053;DHT22;1536;51.098;6.414;2022-11-14T05:39:02;9.90;99.90
3053;DHT22;1536;51.098;6.414;2022-11-14T05:41:29;9.90;99.90
3053;DHT22;1536;51.098;6.414;2022-11-14T05:43:56;9.90;99.90
3053;DHT22;1536;51.098;6.414;2022-11-14T05:46:24;9.90;99.90
3053;DHT22;1536;51.098;6.414;2022-11-14T05:48:50;9.90;99.90
3053;DHT22;1536;51.098;6.414;2022-11-14T05:51:17;9.80;99.90
3053;DHT22;1536;51.098;6.414;2022-11-14T05:53:44;9.80;99.90
3053;DHT22;1536;51.098;6.414;2022-11-14T05:56:11;9.90;99.90
3053;DHT22;1536;51.098;6.414;2022-11-14T05:58:38;9.80;99.90
3053;DHT22;1536;51.098;6.414;2022-11-14T06:01:07;9.80;99.90
3053;DHT22;1536;51.098;6.414;2022-11-14T06:03:37;9.80;99.90
3053;DHT22;1536;51.098;6.414;2022-11-14T06:06:06;9.70;99.90
3053;DHT22;1536;51.098;6.414;2022-11-14T06:08:34;9.70;99.90
3053;DHT22;1536;51.098;6.414;2022-11-14T06:11:02;9.70;99.90
3053;DHT22;1536;51.098;6.414;2022-11-14T06:13:29;9.70;99.90
3053;DHT22;1536;51.098;6.414;2022-11-14T06:15:58;9.70;99.90
3053;DHT22;1536;51.098;6.414;2022-11-14T06:18:25;9.60;99.90
3053;DHT22;1536;51.098;6.414;2022-11-14T06:20:57;9.70;99.90
3053;DHT22;1536;51.098;6.414;2022-11-14T06:23:24;9.70;99.90
3053;DHT22;1536;51.098;6.414;2022-11-14T06:25:51;9.70;99.90
3053;DHT22;1536;51.098;6.414;2022-11-14T06:28:17;9.60;99.90
3053;DHT22;1536;51.098;6.414;2022-11-14T06:30:44;9.60;99.90
3053;DHT22;1536;51.098;6.414;2022-11-14T06:33:11;9.60;99.90
3053;DHT22;1536;51.098;6.414;2022-11-14T06:35:37;9.60;99.90
3053;DHT22;1536;51.098;6.414;2022-11-14T06:38:05;9.60;99.90
3053;DHT22;1536;51.098;6.414;2022-11-14T06:40:32;9.60;99.90
3053;DHT22;1536;51.098;6.414;2022-11-14T06:42:59;9.60;99.90
3053;DHT22;1536;51.098;6.414;2022-11-14T06:45:26;9.60;99.90
3053;DHT22;1536;51.098;6.414;2022-11-14T06:47:52;9.60;99.90
3053;DHT22;1536;51.098;6.414;2022-11-14T06:50:23;9.60;99.90
3053;DHT22;1536;51.098;6.414;2022-11-14T06:52:50;9.60;99.90
3053;DHT22;1536;51.098;6.414;2022-11-14T06:55:18;9.60;99.90
3053;DHT22;1536;51.098;6.414;2022-11-14T06:57:44;9.60;99.90
3053;DHT22;1536;51.098;6.414;2022-11-14T07:00:12;9.70;99.90
3053;DHT22;1536;51.098;6.414;2022-11-14T07:02:39;9.70;99.90
3053;DHT22;1536;51.098;6.414;2022-11-14T07:05:06;9.70;99.90
3053;DHT22;1536;51.098;6.414;2022-11-14T07:07:32;9.70;99.90
3053;DHT22;1536;51.098;6.414;2022-11-14T07:09:59;9.70;99.90
3053;DHT22;1536;51.098;6.414;2022-11-14T07:12:27;9.70;99.90
3053;DHT22;1536;51.098;6.414;2022-11-14T07:14:54;9.70;99.90
3053;DHT22;1536;51.098;6.414;2022-11-14T07:17:20;9.60;99.90
3053;DHT22;1536;51.098;6.414;2022-11-14T07:19:47;9.70;99.90
3053;DHT22;1536;51.098;6.414;2022-11-14T07:22:14;9.70;99.90
3053;DHT22;1536;51.098;6.414;2022-11-14T07:24:41;9.70;99.90
3053;DHT22;1536;51.098;6.414;2022-11-14T07:27:07;9.70;99.90
3053;DHT22;1536;51.098;6.414;2022-11-14T07:29:37;9.70;99.90
3053;DHT22;1536;51.098;6.414;2022-11-14T07:32:04;9.70;99.90
3053;DHT22;1536;51.098;6.414;2022-11-14T07:34:31;9.70;99.90
3053;DHT22;1536;51.098;6.414;2022-11-14T07:36:58;9.70;99.90
3053;DHT22;1536;51.098;6.414;2022-11-14T07:39:25;9.70;99.90
3053;DHT22;1536;51.098;6.414;2022-11-14T07:41:51;9.70;99.90
3053;DHT22;1536;51.098;6.414;2022-11-14T07:44:18;9.70;99.90
3053;DHT22;1536;51.098;6.414;2022-11-14T07:46:46;9.70;99.90
3053;DHT22;1536;51.098;6.414;2022-11-14T07:49:14;9.70;99.90
3053;DHT22;1536;51.098;6.414;2022-11-14T07:51:41;9.70;99.90
3053;DHT22;1536;51.098;6.414;2022-11-14T07:54:09;9.70;99.90
3053;DHT22;1536;51.098;6.414;2022-11-14T07:56:36;9.70;99.90
3053;DHT22;1536;51.098;6.414;2022-11-14T07:59:03;9.80;99.90
3053;DHT22;1536;51.098;6.414;2022-11-14T08:01:29;9.80;99.90
3053;DHT22;1536;51.098;6.414;2022-11-14T08:03:57;9.80;99.90
3053;DHT22;1536;51.098;6.414;2022-11-14T08:06:25;9.80;99.90
3053;DHT22;1536;51.098;6.414;2022-11-14T08:08:52;9.80;99.90
3053;DHT22;1536;51.098;6.414;2022-11-14T08:11:18;9.80;99.90
3053;DHT22;1536;51.098;6.414;2022-11-14T08:14:06;9.80;99.90
3053;DHT22;1536;51.098;6.414;2022-11-14T08:16:33;9.80;99.90
3053;DHT22;1536;51.098;6.414;2022-11-14T08:19:01;9.90;99.90
3053;DHT22;1536;51.098;6.414;2022-11-14T08:21:28;9.90;99.90
3053;DHT22;1536;51.098;6.414;2022-11-14T08:23:54;9.90;99.90
3053;DHT22;1536;51.098;6.414;2022-11-14T08:26:21;9.90;99.90
3053;DHT22;1536;51.098;6.414;2022-11-14T08:28:51;9.90;99.90
3053;DHT22;1536;51.098;6.414;2022-11-14T08:31:18;9.90;99.90
3053;DHT22;1536;51.098;6.414;2022-11-14T08:33:45;10.00;99.90
3053;DHT22;1536;51.098;6.414;2022-11-14T08:36:15;10.00;99.90
3053;DHT22;1536;51.098;6.414;2022-11-14T08:38:42;10.00;99.90
3053;DHT22;1536;51.098;6.414;2022-11-14T08:41:09;10.00;99.90
3053;DHT22;1536;51.098;6.414;2022-11-14T08:43:36;10.10;99.90
3053;DHT22;1536;51.098;6.414;2022-11-14T08:46:03;10.10;99.90
3053;DHT22;1536;51.098;6.414;2022-11-14T08:48:31;10.20;99.90
3053;DHT22;1536;51.098;6.414;2022-11-14T08:51:01;10.20;99.90
3053;DHT22;1536;51.098;6.414;2022-11-14T08:53:30;10.20;99.90
3053;DHT22;1536;51.098;6.414;2022-11-14T08:55:56;10.30;99.90
3053;DHT22;1536;51.098;6.414;2022-11-14T08:58:23;10.30;99.90
3053;DHT22;1536;51.098;6.414;2022-11-14T09:00:52;10.30;99.90
3053;DHT22;1536;51.098;6.414;2022-11-14T09:03:19;10.30;99.90
3053;DHT22;1536;51.098;6.414;2022-11-14T09:05:50;10.40;99.90
3053;DHT22;1536;51.098;6.414;2022-11-14T09:08:16;10.40;99.90
3053;DHT22;1536;51.098;6.414;2022-11-14T09:10:45;10.50;99.90
3053;DHT22;1536;51.098;6.414;2022-11-14T09:13:11;10.50;99.90
3053;DHT22;1536;51.098;6.414;2022-11-14T09:15:38;10.60;99.90
3053;DHT22;1536;51.098;6.414;2022-11-14T09:18:05;10.60;99.90
3053;DHT22;1536;51.098;6.414;2022-11-14T09:20:32;10.60;99.90
3053;DHT22;1536;51.098;6.414;2022-11-14T09:22:59;10.70;99.90
3053;DHT22;1536;51.098;6.414;2022-11-14T09:25:26;10.70;99.90
3053;DHT22;1536;51.098;6.414;2022-11-14T09:27:55;10.70;99.90
3053;DHT22;1536;51.098;6.414;2022-11-14T09:30:22;10.70;99.90
3053;DHT22;1536;51.098;6.414;2022-11-14T09:32:49;10.70;99.90
3053;DHT22;1536;51.098;6.414;2022-11-14T09:35:16;10.70;99.90
3053;DHT22;1536;51.098;6.414;2022-11-14T09:37:42;10.70;99.90
3053;DHT22;1536;51.098;6.414;2022-11-14T09:40:11;10.70;99.90
3053;DHT22;1536;51.098;6.414;2022-11-14T09:42:57;10.70;99.90
3053;DHT22;1536;51.098;6.414;2022-11-14T09:45:26;10.70;99.90
3053;DHT22;1536;51.098;6.414;2022-11-14T09:48:02;10.70;99.90
3053;DHT22;1536;51.098;6.414;2022-11-14T09:50:33;10.70;99.90
3053;DHT22;1536;51.098;6.414;2022-11-14T09:53:06;10.80;99.90
3053;DHT22;1536;51.098;6.414;2022-11-14T09:55:33;10.80;99.90
3053;DHT22;1536;51.098;6.414;2022-11-14T09:58:02;10.80;99.90
3053;DHT22;1536;51.098;6.414;2022-11-14T10:00:45;10.90;99.90
3053;DHT22;1536;51.098;6.414;2022-11-14T10:03:17;10.90;99.90
3053;DHT22;1536;51.098;6.414;2022-11-14T10:06:12;10.90;99.90
3053;DHT22;1536;51.098;6.414;2022-11-14T10:08:57;10.90;99.90
3053;DHT22;1536;51.098;6.414;2022-11-14T10:11:31;10.90;99.90
3053;DHT22;1536;51.098;6.414;2022-11-14T10:14:34;11.00;99.90
3053;DHT22;1536;51.098;6.414;2022-11-14T10:17:25;11.00;99.90
3053;DHT22;1536;51.098;6.414;2022-11-14T10:20:02;11.10;99.90
3053;DHT22;1536;51.098;6.414;2022-11-14T10:22:47;11.10;99.90
3053;DHT22;1536;51.098;6.414;2022-11-14T10:25:21;11.10;99.90
3053;DHT22;1536;51.098;6.414;2022-11-14T10:28:10;11.10;99.90
3053;DHT22;1536;51.098;6.414;2022-11-14T10:30:49;11.10;99.90
3053;DHT22;1536;51.098;6.414;2022-11-14T10:33:27;11.10;99.90
3053;DHT22;1536;51.098;6.414;2022-11-14T10:36:05;11.20;99.90
3053;DHT22;1536;51.098;6.414;2022-11-14T10:38:36;11.20;99.90
3053;DHT22;1536;51.098;6.414;2022-11-14T10:41:05;11.20;99.90
3053;DHT22;1536;51.098;6.414;2022-11-14T10:43:38;11.30;99.90
3053;DHT22;1536;51.098;6.414;2022-11-14T10:46:11;11.30;99.90
3053;DHT22;1536;51.098;6.414;2022-11-14T10:48:41;11.30;99.90
3053;DHT22;1536;51.098;6.414;2022-11-14T10:51:17;11.30;99.90
3053;DHT22;1536;51.098;6.414;2022-11-14T10:53:51;11.30;99.90
3053;DHT22;1536;51.098;6.414;2022-11-14T10:56:19;11.30;99.90
3053;DHT22;1536;51.098;6.414;2022-11-14T10:58:46;11.40;99.90
3053;DHT22;1536;51.098;6.414;2022-11-14T11:01:35;11.40;99.90
3053;DHT22;1536;51.098;6.414;2022-11-14T11:04:20;11.40;99.90
3053;DHT22;1536;51.098;6.414;2022-11-14T11:06:48;11.40;99.90
3053;DHT22;1536;51.098;6.414;2022-11-14T11:09:17;11.40;99.90
3053;DHT22;1536;51.098;6.414;2022-11-14T11:12:02;11.40;99.90
3053;DHT22;1536;51.098;6.414;2022-11-14T11:14:31;11.50;99.90
3053;DHT22;1536;51.098;6.414;2022-11-14T11:17:21;11.50;99.90
3053;DHT22;1536;51.098;6.414;2022-11-14T11:19:49;11.50;99.90
3053;DHT22;1536;51.098;6.414;2022-11-14T11:22:34;11.50;99.90
3053;DHT22;1536;51.098;6.414;2022-11-14T11:25:02;11.50;99.90
3053;DHT22;1536;51.098;6.414;2022-11-14T11:27:29;11.50;99.90
3053;DHT22;1536;51.098;6.414;2022-11-14T11:30:11;11.50;99.90
3053;DHT22;1536;51.098;6.414;2022-11-14T11:32:44;11.50;99.90
3053;DHT22;1536;51.098;6.414;2022-11-14T11:35:12;11.50;99.90
3053;DHT22;1536;51.098;6.414;2022-11-14T11:40:15;11.60;99.90
3053;DHT22;1536;51.098;6.414;2022-11-14T11:42:46;11.60;99.90
3053;DHT22;1536;51.098;6.414;2022-11-14T11:45:16;11.60;99.90
3053;DHT22;1536;51.098;6.414;2022-11-14T11:47:53;11.60;99.90
3053;DHT22;1536;51.098;6.414;2022-11-14T11:50:22;11.60;99.90
3053;DHT22;1536;51.098;6.414;2022-11-14T11:52:57;11.60;99.90
3053;DHT22;1536;51.098;6.414;2022-11-14T11:55:31;11.60;99.90
3053;DHT22;1536;51.098;6.414;2022-11-14T11:58:01;11.60;99.90
3053;DHT22;1536;51.098;6.414;2022-11-14T12:00:30;11.60;99.90
3053;DHT22;1536;51.098;6.414;2022-11-14T12:02:59;11.70;99.90
3053;DHT22;1536;51.098;6.414;2022-11-14T12:05:32;11.60;99.90
3053;DHT22;1536;51.098;6.414;2022-11-14T12:08:04;11.70;99.90
3053;DHT22;1536;51.098;6.414;2022-11-14T12:10:38;11.70;99.90
3053;DHT22;1536;51.098;6.414;2022-11-14T12:13:26;11.70;99.90
3053;DHT22;1536;51.098;6.414;2022-11-14T12:16:02;11.70;99.90
3053;DHT22;1536;51.098;6.414;2022-11-14T12:19:05;11.70;99.90
3053;DHT22;1536;51.098;6.414;2022-11-14T12:21:52;11.70;99.90
3053;DHT22;1536;51.098;6.414;2022-11-14T12:24:45;11.80;99.90
3053;DHT22;1536;51.098;6.414;2022-11-14T12:27:24;11.70;99.90
3053;DHT22;1536;51.098;6.414;2022-11-14T12:30:12;11.70;99.90
3053;DHT22;1536;51.098;6.414;2022-11-14T12:32:43;11.70;99.90
3053;DHT22;1536;51.098;6.414;2022-11-14T12:35:18;11.80;99.90
3053;DHT22;1536;51.098;6.414;2022-11-14T12:37:46;11.80;99.90
3053;DHT22;1536;51.098;6.414;2022-11-14T12:40:25;11.80;99.90
3053;DHT22;1536;51.098;6.414;2022-11-14T12:42:53;11.80;99.90
3053;DHT22;1536;51.098;6.414;2022-11-14T12:45:55;11.80;99.90
3053;DHT22;1536;51.098;6.414;2022-11-14T12:48:29;11.80;99.90
3053;DHT22;1536;51.098;6.414;2022-11-14T12:50:58;11.90;99.90
3053;DHT22;1536;51.098;6.414;2022-11-14T12:53:43;11.90;99.90
3053;DHT22;1536;51.098;6.414;2022-11-14T12:59:45;12.00;99.90
3053;DHT22;1536;51.098;6.414;2022-11-14T13:02:43;12.00;99.90
3053;DHT22;1536;51.098;6.414;2022-11-14T13:05:22;12.00;99.90
3053;DHT22;1536;51.098;6.414;2022-11-14T13:08:08;12.00;99.90
3053;DHT22;1536;51.098;6.414;2022-11-14T13:10:38;12.00;99.90
3053;DHT22;1536;51.098;6.414;2022-11-14T13:13:06;12.00;99.90
3053;DHT22;1536;51.098;6.414;2022-11-14T13:15:52;12.00;99.90
3053;DHT22;1536;51.098;6.414;2022-11-14T13:18:50;12.00;99.90
3053;DHT22;1536;51.098;6.414;2022-11-14T13:21:35;12.00;99.90
3053;DHT22;1536;51.098;6.414;2022-11-14T13:24:13;12.00;99.90
3053;DHT22;1536;51.098;6.414;2022-11-14T13:26:46;12.00;99.90
3053;DHT22;1536;51.098;6.414;2022-11-14T13:35:39;12.00;99.90
3053;DHT22;1536;51.098;6.414;2022-11-14T13:38:35;12.00;99.90
3053;DHT22;1536;51.098;6.414;2022-11-14T13:41:26;12.00;99.90
3053;DHT22;1536;51.098;6.414;2022-11-14T13:44:04;12.00;99.90
3053;DHT22;1536;51.098;6.414;2022-11-14T13:46:50;12.00;99.90
3053;DHT22;1536;51.098;6.414;2022-11-14T13:49:36;12.00;99.90
3053;DHT22;1536;51.098;6.414;2022-11-14T13:52:06;12.00;99.90
3053;DHT22;1536;51.098;6.414;2022-11-14T13:54:33;12.00;99.90
3053;DHT22;1536;51.098;6.414;2022-11-14T13:57:08;12.00;99.90
3053;DHT22;1536;51.098;6.414;2022-11-14T13:59:49;12.00;99.90
3053;DHT22;1536;51.098;6.414;2022-11-14T14:03:01;12.00;99.90
3053;DHT22;1536;51.098;6.414;2022-11-14T14:05:37;12.00;99.90
3053;DHT22;1536;51.098;6.414;2022-11-14T14:08:13;12.00;99.90
3053;DHT22;1536;51.098;6.414;2022-11-14T14:10:50;12.00;99.90
3053;DHT22;1536;51.098;6.414;2022-11-14T14:13:33;12.00;99.90
3053;DHT22;1536;51.098;6.414;2022-11-14T14:16:10;12.00;99.90
3053;DHT22;1536;51.098;6.414;2022-11-14T14:18:46;12.00;99.90
3053;DHT22;1536;51.098;6.414;2022-11-14T14:21:24;12.00;99.90
3053;DHT22;1536;51.098;6.414;2022-11-14T14:23:59;11.90;99.90
3053;DHT22;1536;51.098;6.414;2022-11-14T14:26:35;12.00;99.90
3053;DHT22;1536;51.098;6.414;2022-11-14T14:29:14;12.00;99.90
3053;DHT22;1536;51.098;6.414;2022-11-14T14:31:45;12.00;99.90
3053;DHT22;1536;51.098;6.414;2022-11-14T14:34:23;12.00;99.90
3053;DHT22;1536;51.098;6.414;2022-11-14T14:36:51;12.00;99.90
3053;DHT22;1536;51.098;6.414;2022-11-14T14:39:20;12.00;99.90
3053;DHT22;1536;51.098;6.414;2022-11-14T14:41:47;12.00;99.90
3053;DHT22;1536;51.098;6.414;2022-11-14T14:44:23;12.00;99.90
3053;DHT22;1536;51.098;6.414;2022-11-14T14:46:51;12.00;99.90
3053;DHT22;1536;51.098;6.414;2022-11-14T14:49:21;12.00;99.90
3053;DHT22;1536;51.098;6.414;2022-11-14T14:51:48;12.00;99.90
3053;DHT22;1536;51.098;6.414;2022-11-14T14:54:19;12.00;99.90
3053;DHT22;1536;51.098;6.414;2022-11-14T14:56:54;12.00;99.90
3053;DHT22;1536;51.098;6.414;2022-11-14T14:59:23;12.00;99.90
3053;DHT22;1536;51.098;6.414;2022-11-14T15:01:51;12.00;99.90
3053;DHT22;1536;51.098;6.414;2022-11-14T15:04:21;12.00;99.90
3053;DHT22;1536;51.098;6.414;2022-11-14T15:06:49;12.00;99.90
3053;DHT22;1536;51.098;6.414;2022-11-14T15:09:18;12.00;99.90
3053;DHT22;1536;51.098;6.414;2022-11-14T15:11:47;12.00;99.90
3053;DHT22;1536;51.098;6.414;2022-11-14T15:14:17;12.00;99.90
3053;DHT22;1536;51.098;6.414;2022-11-14T15:16:47;12.00;99.90
3053;DHT22;1536;51.098;6.414;2022-11-14T15:19:18;12.00;99.90
3053;DHT22;1536;51.098;6.414;2022-11-14T15:21:59;12.00;99.90
3053;DHT22;1536;51.098;6.414;2022-11-14T15:24:26;12.00;99.90
3053;DHT22;1536;51.098;6.414;2022-11-14T15:26:54;12.00;99.90
3053;DHT22;1536;51.098;6.414;2022-11-14T15:29:22;11.90;99.90
3053;DHT22;1536;51.098;6.414;2022-11-14T15:31:51;11.90;99.90
3053;DHT22;1536;51.098;6.414;2022-11-14T15:34:23;11.90;99.90
3053;DHT22;1536;51.098;6.414;2022-11-14T15:37:16;11.90;99.90
3053;DHT22;1536;51.098;6.414;2022-11-14T15:39:45;11.90;99.90
3053;DHT22;1536;51.098;6.414;2022-11-14T15:42:13;11.90;99.90
3053;DHT22;1536;51.098;6.414;2022-11-14T15:44:40;11.90;99.90
3053;DHT22;1536;51.098;6.414;2022-11-14T15:47:11;11.90;99.90
3053;DHT22;1536;51.098;6.414;2022-11-14T15:49:39;11.80;99.90
3053;DHT22;1536;51.098;6.414;2022-11-14T15:52:17;11.80;99.90
3053;DHT22;1536;51.098;6.414;2022-11-14T15:54:45;11.80;99.90
3053;DHT22;1536;51.098;6.414;2022-11-14T15:57:13;11.80;99.90
3053;DHT22;1536;51.098;6.414;2022-11-14T15:59:41;11.80;99.90
3053;DHT22;1536;51.098;6.414;2022-11-14T16:02:14;11.80;99.90
3053;DHT22;1536;51.098;6.414;2022-11-14T16:04:42;11.80;99.90
3053;DHT22;1536;51.098;6.414;2022-11-14T16:07:11;11.80;99.90
3053;DHT22;1536;51.098;6.414;2022-11-14T16:09:38;11.80;99.90
3053;DHT22;1536;51.098;6.414;2022-11-14T16:12:05;11.80;99.90
3053;DHT22;1536;51.098;6.414;2022-11-14T16:14:32;11.80;99.90
3053;DHT22;1536;51.098;6.414;2022-11-14T16:16:59;11.80;99.90
3053;DHT22;1536;51.098;6.414;2022-11-14T16:19:27;11.80;99.90
3053;DHT22;1536;51.098;6.414;2022-11-14T16:21:56;11.90;99.90
3053;DHT22;1536;51.098;6.414;2022-11-14T16:24:27;11.80;99.90
3053;DHT22;1536;51.098;6.414;2022-11-14T16:26:54;11.80;99.90
3053;DHT22;1536;51.098;6.414;2022-11-14T16:29:22;11.80;99.90
3053;DHT22;1536;51.098;6.414;2022-11-14T16:31:49;11.80;99.90
3053;DHT22;1536;51.098;6.414;2022-11-14T16:34:18;11.80;99.90
3053;DHT22;1536;51.098;6.414;2022-11-14T16:36:47;11.90;99.90
3053;DHT22;1536;51.098;6.414;2022-11-14T16:39:16;11.80;99.90
3053;DHT22;1536;51.098;6.414;2022-11-14T16:41:43;11.80;99.90
3053;DHT22;1536;51.098;6.414;2022-11-14T16:44:12;11.80;99.90